createdAt,value
2019-04-26T00:02:12.292Z,50.08
2019-04-26T00:04:38.901Z,50.18
2019-04-26T00:07:05.414Z,50.03
2019-04-26T00:09:37.389Z,50.29
2019-04-26T00:12:05.678Z,50.26
2019-04-26T00:14:36.701Z,50.29
2019-04-26T00:17:04.767Z,50.33
2019-04-26T00:19:31.563Z,50.39
2019-04-26T00:21:58.399Z,50.46
2019-04-26T00:24:25.221Z,50.62
2019-04-26T00:26:51.737Z,50.62
2019-04-26T00:29:18.982Z,50.86
2019-04-26T00:31:45.500Z,50.89
2019-04-26T00:34:12.460Z,51.00
2019-04-26T00:36:39.812Z,51.14
2019-04-26T00:39:06.336Z,51.06
2019-04-26T00:41:32.869Z,51.11
2019-04-26T00:43:59.405Z,51.26
2019-04-26T00:46:27.658Z,51.21
2019-04-26T00:48:56.457Z,51.27
2019-04-26T00:51:23.544Z,51.10
2019-04-26T00:53:50.233Z,51.16
2019-04-26T00:56:18.006Z,51.22
2019-04-26T00:58:45.692Z,51.08
2019-04-26T01:01:12.294Z,51.09
2019-04-26T01:03:39.015Z,50.83
2019-04-26T01:06:07.384Z,50.97
2019-04-26T01:08:33.606Z,50.79
2019-04-26T01:10:59.878Z,50.99
2019-04-26T01:13:26.258Z,51.15
2019-04-26T01:15:52.476Z,51.00
2019-04-26T01:18:18.774Z,51.11
2019-04-26T01:20:47.985Z,51.11
2019-04-26T01:23:18.773Z,51.04
2019-04-26T01:26:07.174Z,51.29
2019-04-26T01:28:49.249Z,51.56
2019-04-26T01:31:15.581Z,51.61
2019-04-26T01:33:43.326Z,51.64
2019-04-26T01:36:13.307Z,51.78
2019-04-26T01:38:39.527Z,51.92
2019-04-26T01:41:10.799Z,51.79
2019-04-26T01:43:41.113Z,51.73
2019-04-26T01:46:12.748Z,51.65
2019-04-26T01:48:46.324Z,51.52
2019-04-26T01:51:20.196Z,51.70
2019-04-26T01:53:50.443Z,51.60
2019-04-26T01:56:21.816Z,51.51
2019-04-26T01:58:48.793Z,51.55
2019-04-26T02:01:29.528Z,51.33
2019-04-26T02:03:56.023Z,51.29
2019-04-26T02:06:28.788Z,51.14
2019-04-26T02:08:51.154Z,51.03
2019-04-26T02:11:17.712Z,50.97
2019-04-26T02:13:44.221Z,50.91
2019-04-26T02:16:10.392Z,50.64
2019-04-26T02:18:36.837Z,50.63
2019-04-26T02:21:16.941Z,50.45
2019-04-26T02:23:49.047Z,50.11
2019-04-26T02:26:35.117Z,49.88
2019-04-26T02:29:03.766Z,49.97
2019-04-26T02:31:31.487Z,49.73
2019-04-26T02:34:00.778Z,49.57
2019-04-26T02:36:47.952Z,49.21
2019-04-26T02:38:59.027Z,49.24
2019-04-26T02:41:28.122Z,49.20
2019-04-26T02:43:58.091Z,49.19
2019-04-26T02:46:31.206Z,49.13
2019-04-26T02:49:11.655Z,49.10
2019-04-26T02:51:41.708Z,49.22
2019-04-26T02:54:14.744Z,49.25
2019-04-26T02:56:44.820Z,49.42
2019-04-26T02:59:34.565Z,49.33
2019-04-26T03:02:05.349Z,49.11
2019-04-26T03:04:35.992Z,48.94
2019-04-26T03:07:06.198Z,48.79
2019-04-26T03:09:37.031Z,48.71
2019-04-26T03:12:07.013Z,48.41
2019-04-26T03:14:42.029Z,48.14
2019-04-26T03:17:27.827Z,48.14
2019-04-26T03:20:02.888Z,48.31
2019-04-26T03:22:37.364Z,48.13
2019-04-26T03:25:36.963Z,48.12
2019-04-26T03:28:22.188Z,47.76
2019-04-26T03:31:21.752Z,47.73
2019-04-26T03:34:03.917Z,47.64
2019-04-26T03:36:37.870Z,47.48
2019-04-26T03:39:22.068Z,47.75
2019-04-26T03:42:05.250Z,47.63
2019-04-26T03:44:50.032Z,47.82
2019-04-26T03:47:25.987Z,47.70
2019-04-26T03:49:58.843Z,48.00
2019-04-26T03:52:47.116Z,48.16
2019-04-26T03:55:27.893Z,48.14
2019-04-26T03:58:05.786Z,48.17
2019-04-26T04:00:49.334Z,47.96
2019-04-26T04:03:30.245Z,47.89
2019-04-26T04:06:00.313Z,47.95
2019-04-26T04:08:46.671Z,48.15
2019-04-26T04:11:17.503Z,48.02
2019-04-26T04:13:51.046Z,48.15
2019-04-26T04:16:22.511Z,48.20
2019-04-26T04:19:09.360Z,48.42
2019-04-26T04:21:55.865Z,48.50
2019-04-26T04:24:25.959Z,48.75
2019-04-26T04:27:01.873Z,48.56
2019-04-26T04:30:02.231Z,48.56
2019-04-26T04:32:42.469Z,48.53
2019-04-26T04:35:11.606Z,48.68
2019-04-26T04:38:07.748Z,47.94
2019-04-26T04:40:27.323Z,48.22
2019-04-26T04:43:32.855Z,47.42
2019-04-26T04:46:25.983Z,46.59
2019-04-26T04:49:19.313Z,46.01
2019-04-26T04:52:10.468Z,45.28
2019-04-26T04:54:42.670Z,44.74
2019-04-26T04:57:18.498Z,44.51
2019-04-26T05:00:08.021Z,44.64
2019-04-26T05:02:51.909Z,44.67
2019-04-26T05:06:06.666Z,44.52
2019-04-26T05:08:36.787Z,44.28
2019-04-26T05:11:23.667Z,44.12
2019-04-26T05:14:10.273Z,44.95
2019-04-26T05:17:04.363Z,47.13
2019-04-26T05:19:46.857Z,48.43
2019-04-26T05:22:49.136Z,49.77
2019-04-26T05:25:53.522Z,50.29
2019-04-26T05:28:43.459Z,51.19
2019-04-26T05:31:42.716Z,51.79
2019-04-26T05:34:20.624Z,52.17
2019-04-26T05:36:59.590Z,52.14
2019-04-26T05:39:29.501Z,52.15
2019-04-26T05:42:13.463Z,51.92
2019-04-26T05:45:15.262Z,52.21
2019-04-26T05:48:12.963Z,52.08
2019-04-26T05:51:21.110Z,51.98
2019-04-26T05:54:20.086Z,52.03
2019-04-26T05:56:56.273Z,52.16
2019-04-26T05:59:35.165Z,52.06
2019-04-26T06:02:37.865Z,52.82
2019-04-26T06:05:18.644Z,52.88
2019-04-26T06:08:36.061Z,52.90
2019-04-26T06:11:16.700Z,52.82
2019-04-26T06:13:57.816Z,52.71
2019-04-26T06:16:33.655Z,52.51
2019-04-26T06:19:17.387Z,52.25
2019-04-26T06:21:52.181Z,51.96
2019-04-26T06:24:28.010Z,52.15
2019-04-26T06:27:11.027Z,52.42
2019-04-26T06:29:44.181Z,52.23
2019-04-26T06:32:16.907Z,52.22
2019-04-26T06:35:01.936Z,51.89
2019-04-26T06:37:39.782Z,51.51
2019-04-26T06:40:15.917Z,51.35
2019-04-26T06:43:05.693Z,51.39
2019-04-26T06:45:56.885Z,50.93
2019-04-26T06:48:31.939Z,51.27
2019-04-26T06:51:24.152Z,51.40
2019-04-26T06:53:54.619Z,51.26
2019-04-26T06:56:47.332Z,51.22
2019-04-26T06:59:36.520Z,51.22
2019-04-26T07:02:19.701Z,50.96
2019-04-26T07:04:55.821Z,50.49
2019-04-26T07:07:25.851Z,50.14
2019-04-26T07:09:59.084Z,50.32
2019-04-26T07:12:38.136Z,50.44
2019-04-26T07:15:29.009Z,49.99
2019-04-26T07:18:10.876Z,49.92
2019-04-26T07:20:54.874Z,49.63
2019-04-26T07:23:41.871Z,49.67
2019-04-26T07:26:28.723Z,49.68
2019-04-26T07:29:26.307Z,49.76
2019-04-26T07:31:56.435Z,49.84
2019-04-26T07:34:54.107Z,49.55
2019-04-26T07:37:32.878Z,49.31
2019-04-26T07:40:11.432Z,49.23
2019-04-26T07:42:55.924Z,49.61
2019-04-26T07:45:33.684Z,49.27
2019-04-26T07:48:20.657Z,48.72
2019-04-26T07:51:23.861Z,49.21
2019-04-26T07:54:27.897Z,49.01
2019-04-26T07:57:22.474Z,49.03
2019-04-26T08:00:08.962Z,49.22
2019-04-26T08:02:52.920Z,49.17
2019-04-26T08:05:24.789Z,49.15
2019-04-26T08:07:57.625Z,48.79
2019-04-26T08:10:26.734Z,49.67
2019-04-26T08:13:08.505Z,48.78
2019-04-26T08:15:43.383Z,49.17
2019-04-26T08:18:17.033Z,49.42
2019-04-26T08:20:48.848Z,49.17
2019-04-26T08:23:39.193Z,48.98
2019-04-26T08:25:53.839Z,49.10
2019-04-26T08:28:23.359Z,48.30
2019-04-26T08:30:54.635Z,48.11
2019-04-26T08:33:26.605Z,48.69
2019-04-26T08:35:55.911Z,48.59
2019-04-26T08:38:24.887Z,49.15
2019-04-26T08:40:51.864Z,48.97
2019-04-26T08:43:27.425Z,48.96
2019-04-26T08:46:03.041Z,48.78
2019-04-26T08:48:39.180Z,48.40
2019-04-26T08:51:09.303Z,48.32
2019-04-26T08:53:39.354Z,48.32
2019-04-26T08:56:07.707Z,47.82
2019-04-26T08:58:37.686Z,48.52
2019-04-26T09:01:21.907Z,47.87
2019-04-26T09:03:53.840Z,47.47
2019-04-26T09:06:30.683Z,47.15
2019-04-26T09:09:00.755Z,47.45
2019-04-26T09:11:33.537Z,47.25
2019-04-26T09:14:00.639Z,47.26
2019-04-26T09:16:26.999Z,47.00
2019-04-26T09:18:57.248Z,47.04
2019-04-26T09:21:23.264Z,46.75
2019-04-26T09:24:08.460Z,46.21
2019-04-26T09:26:42.609Z,46.11
2019-04-26T09:29:22.303Z,45.87
2019-04-26T09:32:05.800Z,45.59
2019-04-26T09:34:35.142Z,45.62
2019-04-26T09:37:01.264Z,45.69
2019-04-26T09:39:27.703Z,45.83
2019-04-26T09:41:55.769Z,45.29
2019-04-26T09:44:42.945Z,45.23
2019-04-26T09:47:26.498Z,45.31
2019-04-26T09:49:57.339Z,44.65
2019-04-26T09:52:25.341Z,44.87
2019-04-26T09:54:51.535Z,45.14
2019-04-26T09:57:17.975Z,44.20
2019-04-26T09:59:44.174Z,43.86
2019-04-26T10:02:12.669Z,44.28
2019-04-26T10:04:38.846Z,44.73
2019-04-26T10:07:05.114Z,43.43
2019-04-26T10:09:32.798Z,43.14
2019-04-26T10:12:01.065Z,42.82
2019-04-26T10:14:29.329Z,43.18
2019-04-26T10:17:00.156Z,41.97
2019-04-26T10:19:31.653Z,42.53
2019-04-26T10:21:58.236Z,43.17
2019-04-26T10:24:24.473Z,43.11
2019-04-26T10:26:50.669Z,42.96
2019-04-26T10:29:17.085Z,42.69
2019-04-26T10:31:43.205Z,43.21
2019-04-26T10:34:11.808Z,42.88
2019-04-26T10:36:37.460Z,42.42
2019-04-26T10:39:06.247Z,42.50
2019-04-26T10:41:34.171Z,41.07
2019-04-26T10:44:00.298Z,41.13
2019-04-26T10:46:28.352Z,39.97
2019-04-26T10:48:54.625Z,39.57
2019-04-26T10:51:24.133Z,39.07
2019-04-26T10:54:01.631Z,38.86
2019-04-26T10:56:34.550Z,37.82
2019-04-26T10:59:17.712Z,37.59
2019-04-26T11:01:44.040Z,37.64
2019-04-26T11:04:10.401Z,37.41
2019-04-26T11:06:36.679Z,37.43
2019-04-26T11:09:05.518Z,36.40
2019-04-26T11:11:33.104Z,35.33
2019-04-26T11:13:59.393Z,33.29
2019-04-26T11:16:25.575Z,32.62
2019-04-26T11:18:51.894Z,31.57
2019-04-26T11:21:20.811Z,31.08
2019-04-26T11:23:46.994Z,31.07
2019-04-26T11:26:13.330Z,29.02
2019-04-26T11:28:41.934Z,28.87
2019-04-26T11:31:07.957Z,29.38
2019-04-26T11:33:44.400Z,30.37
2019-04-26T11:36:03.331Z,29.46
2019-04-26T11:38:31.217Z,29.66
2019-04-26T11:41:06.231Z,29.82
2019-04-26T11:43:26.797Z,29.32
2019-04-26T11:46:03.765Z,28.47
2019-04-26T11:48:21.201Z,28.16
2019-04-26T11:50:48.203Z,27.36
2019-04-26T11:53:15.421Z,28.28
2019-04-26T11:55:41.584Z,26.18
2019-04-26T11:58:07.821Z,25.85
2019-04-26T12:00:38.775Z,26.46
2019-04-26T12:03:05.191Z,24.96
2019-04-26T12:05:33.373Z,24.97
2019-04-26T12:08:01.646Z,24.11
2019-04-26T12:10:27.919Z,24.56
2019-04-26T12:13:05.180Z,24.03
2019-04-26T12:15:30.063Z,24.21
2019-04-26T12:17:58.396Z,23.60
2019-04-26T12:20:22.395Z,23.45
2019-04-26T12:22:46.752Z,24.37
2019-04-26T12:25:13.480Z,24.45
2019-04-26T12:27:39.682Z,25.91
2019-04-26T12:30:06.631Z,26.93
2019-04-26T12:32:32.992Z,27.67
2019-04-26T12:34:59.225Z,28.58
2019-04-26T12:37:25.552Z,29.59
2019-04-26T12:39:51.843Z,30.90
2019-04-26T12:42:18.062Z,31.92
2019-04-26T12:44:52.274Z,32.19
2019-04-26T12:47:20.435Z,33.10
2019-04-26T12:49:46.558Z,32.67
2019-04-26T12:52:13.039Z,30.81
2019-04-26T12:54:42.909Z,29.12
2019-04-26T12:57:07.451Z,27.23
2019-04-26T12:59:43.661Z,26.42
2019-04-26T13:02:05.847Z,25.82
2019-04-26T13:04:36.016Z,25.26
2019-04-26T13:07:06.921Z,27.74
2019-04-26T13:09:35.687Z,29.90
2019-04-26T13:12:03.705Z,30.93
2019-04-26T13:14:32.053Z,32.16
2019-04-26T13:17:02.823Z,33.21
2019-04-26T13:19:29.163Z,34.35
2019-04-26T13:21:55.289Z,34.48
2019-04-26T13:24:21.459Z,35.34
2019-04-26T13:26:50.037Z,35.99
2019-04-26T13:29:15.841Z,35.21
2019-04-26T13:31:42.023Z,34.56
2019-04-26T13:34:08.364Z,32.59
2019-04-26T13:36:34.479Z,30.31
2019-04-26T13:39:00.714Z,30.42
2019-04-26T13:41:28.018Z,30.82
2019-04-26T13:43:57.127Z,29.58
2019-04-26T13:46:42.791Z,29.39
2019-04-26T13:49:14.226Z,31.71
2019-04-26T13:51:40.879Z,33.24
2019-04-26T13:54:07.187Z,34.17
2019-04-26T13:56:35.924Z,35.09
2019-04-26T13:59:01.411Z,36.30
2019-04-26T14:01:27.729Z,37.36
2019-04-26T14:03:54.962Z,37.84
2019-04-26T14:06:21.268Z,38.22
2019-04-26T14:08:47.539Z,38.74
2019-04-26T14:11:13.690Z,39.51
2019-04-26T14:13:41.096Z,39.67
2019-04-26T14:16:08.993Z,40.12
2019-04-26T14:18:38.982Z,40.82
2019-04-26T14:21:04.197Z,41.40
2019-04-26T14:23:35.369Z,42.20
2019-04-26T14:26:05.139Z,42.48
2019-04-26T14:28:31.702Z,42.70
2019-04-26T14:30:58.029Z,43.11
2019-04-26T14:33:27.080Z,43.37
2019-04-26T14:36:22.637Z,43.68
2019-04-26T14:38:49.137Z,44.34
2019-04-26T14:41:21.754Z,44.32
2019-04-26T14:43:43.577Z,44.64
2019-04-26T14:46:10.539Z,44.61
2019-04-26T14:48:40.612Z,44.62
2019-04-26T14:51:08.287Z,44.97
2019-04-26T14:53:36.308Z,45.26
2019-04-26T14:56:02.262Z,45.59
2019-04-26T14:58:30.292Z,46.26
2019-04-26T15:00:58.806Z,46.70
2019-04-26T15:03:29.965Z,47.07
2019-04-26T15:06:07.119Z,47.43
2019-04-26T15:08:34.307Z,48.05
2019-04-26T15:11:02.192Z,48.54
2019-04-26T15:13:28.718Z,48.54
2019-04-26T15:15:55.186Z,48.73
2019-04-26T15:18:22.492Z,49.02
2019-04-26T15:20:49.036Z,49.11
2019-04-26T15:23:15.387Z,49.52
2019-04-26T15:25:48.077Z,49.71
2019-04-26T15:28:12.021Z,50.15
2019-04-26T15:30:43.381Z,50.48
2019-04-26T15:33:09.002Z,50.58
2019-04-26T15:35:35.884Z,51.00
2019-04-26T15:38:02.492Z,51.35
2019-04-26T15:40:47.366Z,51.58
2019-04-26T15:43:32.647Z,51.51
2019-04-26T15:46:12.457Z,51.96
2019-04-26T15:48:55.766Z,52.34
2019-04-26T15:51:27.172Z,52.72
2019-04-26T15:53:53.076Z,52.97
2019-04-26T15:56:22.240Z,53.15
2019-04-26T15:58:49.181Z,53.62
2019-04-26T16:01:16.501Z,53.87
2019-04-26T16:03:44.625Z,54.33
2019-04-26T16:06:12.590Z,54.36
2019-04-26T16:08:42.726Z,54.38
2019-04-26T16:11:11.217Z,54.47
2019-04-26T16:13:35.491Z,54.64
2019-04-26T16:16:05.017Z,54.69
2019-04-26T16:18:32.363Z,54.63
2019-04-26T16:20:58.749Z,54.63
2019-04-26T16:23:38.116Z,54.69
2019-04-26T16:25:53.115Z,54.64
2019-04-26T16:28:31.042Z,54.70
2019-04-26T16:31:02.528Z,55.08
2019-04-26T16:33:34.543Z,55.21
2019-04-26T16:36:02.557Z,55.75
2019-04-26T16:38:34.606Z,56.23
2019-04-26T16:41:03.263Z,56.70
2019-04-26T16:43:39.523Z,56.78
2019-04-26T16:45:58.559Z,57.28
2019-04-26T16:48:25.888Z,57.47
2019-04-26T16:50:53.223Z,57.70
2019-04-26T16:53:41.430Z,58.09
2019-04-26T16:55:52.142Z,58.32
2019-04-26T16:58:16.353Z,58.64
2019-04-26T17:00:51.611Z,58.99
2019-04-26T17:03:11.436Z,59.30
2019-04-26T17:05:47.825Z,59.42
2019-04-26T17:08:10.189Z,60.12
2019-04-26T17:10:34.351Z,60.15
2019-04-26T17:13:00.638Z,60.29
2019-04-26T17:15:27.022Z,60.61
2019-04-26T17:17:53.396Z,60.97
2019-04-26T17:20:20.819Z,61.03
2019-04-26T17:23:00.779Z,61.78
2019-04-26T17:25:37.211Z,62.32
2019-04-26T17:28:04.768Z,62.87
2019-04-26T17:30:34.554Z,63.38
2019-04-26T17:32:59.868Z,64.00
2019-04-26T17:35:26.190Z,64.77
2019-04-26T17:37:52.327Z,65.87
2019-04-26T17:40:23.435Z,66.38
2019-04-26T17:42:47.036Z,67.42
2019-04-26T17:45:13.553Z,67.97
2019-04-26T17:47:41.822Z,68.90
2019-04-26T17:50:08.272Z,69.64
2019-04-26T17:52:36.002Z,70.29
2019-04-26T17:55:07.746Z,71.46
2019-04-26T17:57:36.725Z,71.66
2019-04-26T18:00:07.831Z,72.31
2019-04-26T18:02:41.191Z,73.15
2019-04-26T18:05:03.231Z,73.20
2019-04-26T18:07:42.404Z,73.56
2019-04-26T18:09:56.966Z,73.54
2019-04-26T18:12:24.500Z,73.90
2019-04-26T18:14:50.870Z,74.38
2019-04-26T18:17:25.070Z,74.86
2019-04-26T18:19:53.285Z,75.59
2019-04-26T18:22:37.898Z,75.95
2019-04-26T18:25:11.252Z,76.13
2019-04-26T18:27:38.412Z,76.28
2019-04-26T18:30:11.399Z,76.91
2019-04-26T18:32:42.137Z,77.54
2019-04-26T18:35:04.212Z,77.48
2019-04-26T18:37:30.457Z,77.38
2019-04-26T18:39:57.512Z,77.55
2019-04-26T18:42:27.046Z,77.32
2019-04-26T18:44:54.002Z,77.23
2019-04-26T18:47:28.867Z,76.91
2019-04-26T18:50:00.172Z,77.10
2019-04-26T18:52:28.460Z,76.88
2019-04-26T18:54:56.589Z,76.80
2019-04-26T18:57:23.845Z,76.61
2019-04-26T18:59:51.727Z,76.50
2019-04-26T19:02:19.910Z,76.50
2019-04-26T19:04:47.958Z,76.24
2019-04-26T19:07:15.919Z,76.54
2019-04-26T19:09:56.766Z,77.51
2019-04-26T19:12:12.535Z,77.92
2019-04-26T19:15:04.274Z,77.84
2019-04-26T19:17:34.299Z,78.06
2019-04-26T19:20:14.826Z,77.95
2019-04-26T19:22:46.543Z,78.09
2019-04-26T19:25:20.917Z,77.89
2019-04-26T19:27:48.090Z,77.51
2019-04-26T19:30:09.145Z,77.78
2019-04-26T19:32:39.672Z,77.65
2019-04-26T19:35:07.001Z,77.25
2019-04-26T19:37:36.765Z,77.62
2019-04-26T19:40:02.946Z,77.41
2019-04-26T19:42:32.279Z,77.31
2019-04-26T19:45:11.843Z,77.42
2019-04-26T19:47:28.877Z,77.65
2019-04-26T19:50:03.117Z,77.61
2019-04-26T19:52:39.493Z,77.91
2019-04-26T19:55:24.212Z,78.30
2019-04-26T19:58:12.191Z,78.45
2019-04-26T20:00:38.538Z,78.81
2019-04-26T20:03:04.250Z,78.88
2019-04-26T20:05:31.980Z,79.50
2019-04-26T20:08:02.378Z,79.87
2019-04-26T20:10:26.577Z,80.63
2019-04-26T20:12:53.018Z,80.91
2019-04-26T20:15:25.866Z,81.79
2019-04-26T20:17:52.544Z,81.96
2019-04-26T20:20:19.371Z,82.70
2019-04-26T20:22:43.891Z,83.31
2019-04-26T20:25:11.915Z,83.38
2019-04-26T20:27:38.160Z,84.16
2019-04-26T20:30:08.902Z,84.17
2019-04-26T20:32:37.035Z,84.19
2019-04-26T20:35:08.887Z,84.51
2019-04-26T20:37:35.127Z,84.84
2019-04-26T20:40:17.687Z,84.83
2019-04-26T20:42:31.643Z,84.94
2019-04-26T20:44:58.046Z,85.06
2019-04-26T20:47:24.538Z,84.95
2019-04-26T20:50:00.762Z,85.14
2019-04-26T20:52:21.471Z,85.62
2019-04-26T20:54:51.100Z,85.64
2019-04-26T20:57:15.446Z,85.71
2019-04-26T20:59:43.351Z,85.71
2019-04-26T21:02:09.677Z,85.67
2019-04-26T21:04:38.459Z,85.90
2019-04-26T21:07:06.674Z,85.87
2019-04-26T21:09:36.415Z,85.88
2019-04-26T21:12:01.914Z,85.87
2019-04-26T21:14:28.525Z,85.97
2019-04-26T21:16:54.687Z,85.65
2019-04-26T21:19:20.895Z,85.80
2019-04-26T21:21:49.800Z,85.78
2019-04-26T21:24:19.705Z,85.94
2019-04-26T21:27:04.431Z,85.82
2019-04-26T21:29:52.469Z,86.04
2019-04-26T21:32:26.734Z,86.06
2019-04-26T21:34:56.448Z,86.04
2019-04-26T21:37:24.456Z,85.96
2019-04-26T21:40:03.800Z,86.10
2019-04-26T21:42:33.364Z,86.22
2019-04-26T21:44:59.834Z,86.15
2019-04-26T21:47:27.452Z,86.24
2019-04-26T21:49:58.901Z,86.38
2019-04-26T21:52:27.547Z,86.67
2019-04-26T21:54:53.112Z,86.50
2019-04-26T21:57:25.043Z,86.59
2019-04-26T21:59:47.032Z,86.54
2019-04-26T22:02:14.068Z,86.62
2019-04-26T22:04:40.274Z,86.59
2019-04-26T22:07:07.819Z,86.76
2019-04-26T22:09:43.047Z,86.82
2019-04-26T22:12:12.791Z,86.86
2019-04-26T22:14:43.386Z,86.96
2019-04-26T22:17:16.340Z,87.19
2019-04-26T22:20:06.982Z,88.03
2019-04-26T22:22:48.149Z,87.60
2019-04-26T22:25:15.956Z,87.77
2019-04-26T22:27:43.677Z,87.83
2019-04-26T22:30:13.331Z,87.85
2019-04-26T22:32:39.662Z,88.04
2019-04-26T22:35:05.987Z,88.16
2019-04-26T22:37:33.707Z,87.99
2019-04-26T22:40:00.072Z,88.03
2019-04-26T22:42:26.743Z,88.01
2019-04-26T22:44:54.938Z,87.64
2019-04-26T22:47:26.136Z,87.87
2019-04-26T22:49:52.412Z,87.67
2019-04-26T22:55:43.592Z,87.66
2019-04-26T22:58:09.971Z,87.75
2019-04-26T23:00:38.312Z,87.64
2019-04-26T23:03:07.197Z,87.66
2019-04-26T23:05:37.352Z,87.60
2019-04-26T23:08:03.346Z,87.79
2019-04-26T23:10:33.945Z,87.79
2019-04-26T23:13:07.419Z,87.84
2019-04-26T23:15:43.139Z,88.00
2019-04-26T23:18:17.083Z,87.80
2019-04-26T23:21:03.427Z,87.91
2019-04-26T23:23:31.054Z,87.83
2019-04-26T23:25:57.437Z,87.88
2019-04-26T23:28:23.735Z,87.89
2019-04-26T23:30:53.114Z,87.93
2019-04-26T23:33:19.561Z,88.06
2019-04-26T23:35:47.591Z,87.90
2019-04-26T23:38:13.795Z,87.84
2019-04-26T23:40:39.975Z,87.66
2019-04-26T23:43:06.257Z,87.89
2019-04-26T23:45:33.330Z,87.89
2019-04-26T23:47:59.728Z,87.94
2019-04-26T23:50:29.470Z,87.88
2019-04-26T23:52:54.053Z,88.07
2019-04-26T23:55:20.202Z,87.96
2019-04-26T23:57:46.424Z,87.90
